<?xml version="1.0" encoding="UTF-8" standalone="no" ?>
<gpx xmlns="http://www.topografix.com/GPX/1/1" xmlns:xsi="http://www.w3.org/2001/XMLSchema-instance" xsi:schemaLocation="http://www.topografix.com/GPX/1/1 http://www.topografix.com/GPX/1/1/gpx.xsd" version="1.1" creator="VisuGPX - https://www.visugpx.com">
  <metadata>
    <name>Husseren-Chauvelin et Storckensohn 8,89km </name>
  </metadata>
  <trk>
    <name><![CDATA[Le Chauvelin et Storckensohn depuis Husseren]]></name>
    <trkseg>
      <trkpt lat="47.88796" lon="6.98997">
        <ele>442</ele>
        <time>2016-10-28T05:51:05+02:00</time>
      </trkpt>
      <trkpt lat="47.88833" lon="6.9892">
        <ele>459</ele>
        <time>2016-10-28T05:51:10+02:00</time>
      </trkpt>
      <trkpt lat="47.88858" lon="6.98825">
        <ele>469</ele>
        <time>2016-10-28T05:51:15+02:00</time>
      </trkpt>
      <trkpt lat="47.88865" lon="6.98773">
        <ele>473</ele>
        <time>2016-10-28T05:51:20+02:00</time>
      </trkpt>
      <trkpt lat="47.88866" lon="6.98718">
        <ele>483</ele>
        <time>2016-10-28T05:51:25+02:00</time>
      </trkpt>
      <trkpt lat="47.88862" lon="6.98618">
        <ele>505</ele>
        <time>2016-10-28T05:51:30+02:00</time>
      </trkpt>
      <trkpt lat="47.88858" lon="6.98563">
        <ele>515</ele>
        <time>2016-10-28T05:51:35+02:00</time>
      </trkpt>
      <trkpt lat="47.88855" lon="6.9852">
        <ele>521</ele>
        <time>2016-10-28T05:51:40+02:00</time>
      </trkpt>
      <trkpt lat="47.88861" lon="6.9843">
        <ele>523</ele>
        <time>2016-10-28T05:51:45+02:00</time>
      </trkpt>
      <trkpt lat="47.88838" lon="6.9846">
        <ele>532</ele>
        <time>2016-10-28T05:51:50+02:00</time>
      </trkpt>
      <trkpt lat="47.88839" lon="6.98387">
        <ele>536</ele>
        <time>2016-10-28T05:51:55+02:00</time>
      </trkpt>
      <trkpt lat="47.88854" lon="6.98319">
        <ele>536</ele>
        <time>2016-10-28T05:52:00+02:00</time>
      </trkpt>
      <trkpt lat="47.88828" lon="6.9836">
        <ele>540</ele>
        <time>2016-10-28T05:52:05+02:00</time>
      </trkpt>
      <trkpt lat="47.88816" lon="6.98375">
        <ele>539</ele>
        <time>2016-10-28T05:52:10+02:00</time>
      </trkpt>
      <trkpt lat="47.88798" lon="6.98355">
        <ele>539</ele>
        <time>2016-10-28T05:52:15+02:00</time>
      </trkpt>
      <trkpt lat="47.888" lon="6.9834">
        <ele>539</ele>
        <time>2016-10-28T05:52:20+02:00</time>
      </trkpt>
      <trkpt lat="47.88806" lon="6.98317">
        <ele>542</ele>
        <time>2016-10-28T05:52:25+02:00</time>
      </trkpt>
      <trkpt lat="47.88794" lon="6.98284">
        <ele>545</ele>
        <time>2016-10-28T05:52:30+02:00</time>
      </trkpt>
      <trkpt lat="47.88824" lon="6.98294">
        <ele>547</ele>
        <time>2016-10-28T05:52:35+02:00</time>
      </trkpt>
      <trkpt lat="47.88783" lon="6.98217">
        <ele>555</ele>
        <time>2016-10-28T05:52:40+02:00</time>
      </trkpt>
      <trkpt lat="47.88807" lon="6.9821">
        <ele>561</ele>
        <time>2016-10-28T05:52:45+02:00</time>
      </trkpt>
      <trkpt lat="47.88832" lon="6.98195">
        <ele>569</ele>
        <time>2016-10-28T05:52:50+02:00</time>
      </trkpt>
      <trkpt lat="47.88818" lon="6.98176">
        <ele>571</ele>
        <time>2016-10-28T05:52:55+02:00</time>
      </trkpt>
      <trkpt lat="47.8884" lon="6.98157">
        <ele>576</ele>
        <time>2016-10-28T05:53:00+02:00</time>
      </trkpt>
      <trkpt lat="47.88802" lon="6.9813">
        <ele>580</ele>
        <time>2016-10-28T05:53:05+02:00</time>
      </trkpt>
      <trkpt lat="47.88778" lon="6.98109">
        <ele>582</ele>
        <time>2016-10-28T05:53:10+02:00</time>
      </trkpt>
      <trkpt lat="47.88761" lon="6.98068">
        <ele>592</ele>
        <time>2016-10-28T05:53:15+02:00</time>
      </trkpt>
      <trkpt lat="47.88791" lon="6.98063">
        <ele>596</ele>
        <time>2016-10-28T05:53:20+02:00</time>
      </trkpt>
      <trkpt lat="47.88821" lon="6.98057">
        <ele>600</ele>
        <time>2016-10-28T05:53:25+02:00</time>
      </trkpt>
      <trkpt lat="47.88827" lon="6.98045">
        <ele>602</ele>
        <time>2016-10-28T05:53:30+02:00</time>
      </trkpt>
      <trkpt lat="47.88823" lon="6.98019">
        <ele>606</ele>
        <time>2016-10-28T05:53:35+02:00</time>
      </trkpt>
      <trkpt lat="47.88794" lon="6.97993">
        <ele>610</ele>
        <time>2016-10-28T05:53:40+02:00</time>
      </trkpt>
      <trkpt lat="47.88781" lon="6.97966">
        <ele>615</ele>
        <time>2016-10-28T05:53:45+02:00</time>
      </trkpt>
      <trkpt lat="47.88768" lon="6.97942">
        <ele>621</ele>
        <time>2016-10-28T05:53:50+02:00</time>
      </trkpt>
      <trkpt lat="47.88771" lon="6.97926">
        <ele>623</ele>
        <time>2016-10-28T05:53:55+02:00</time>
      </trkpt>
      <trkpt lat="47.88776" lon="6.97909">
        <ele>625</ele>
        <time>2016-10-28T05:54:00+02:00</time>
      </trkpt>
      <trkpt lat="47.88787" lon="6.97899">
        <ele>624</ele>
        <time>2016-10-28T05:54:05+02:00</time>
      </trkpt>
      <trkpt lat="47.88742" lon="6.97844">
        <ele>639</ele>
        <time>2016-10-28T05:54:10+02:00</time>
      </trkpt>
      <trkpt lat="47.88696" lon="6.97797">
        <ele>647</ele>
        <time>2016-10-28T05:54:15+02:00</time>
      </trkpt>
      <trkpt lat="47.88666" lon="6.97736">
        <ele>658</ele>
        <time>2016-10-28T05:54:20+02:00</time>
      </trkpt>
      <trkpt lat="47.88636" lon="6.97685">
        <ele>664</ele>
        <time>2016-10-28T05:54:25+02:00</time>
      </trkpt>
      <trkpt lat="47.88614" lon="6.97655">
        <ele>669</ele>
        <time>2016-10-28T05:54:30+02:00</time>
      </trkpt>
      <trkpt lat="47.88589" lon="6.9763">
        <ele>676</ele>
        <time>2016-10-28T05:54:35+02:00</time>
      </trkpt>
      <trkpt lat="47.8857" lon="6.97632">
        <ele>680</ele>
        <time>2016-10-28T05:54:40+02:00</time>
      </trkpt>
      <trkpt lat="47.88582" lon="6.97669">
        <ele>680</ele>
        <time>2016-10-28T05:54:45+02:00</time>
      </trkpt>
      <trkpt lat="47.88593" lon="6.9771">
        <ele>673</ele>
        <time>2016-10-28T05:54:50+02:00</time>
      </trkpt>
      <trkpt lat="47.88566" lon="6.9776">
        <ele>673</ele>
        <time>2016-10-28T05:54:55+02:00</time>
      </trkpt>
      <trkpt lat="47.88545" lon="6.97778">
        <ele>675</ele>
        <time>2016-10-28T05:55:00+02:00</time>
      </trkpt>
      <trkpt lat="47.88519" lon="6.97783">
        <ele>680</ele>
        <time>2016-10-28T05:55:05+02:00</time>
      </trkpt>
      <trkpt lat="47.88502" lon="6.97763">
        <ele>688</ele>
        <time>2016-10-28T05:55:10+02:00</time>
      </trkpt>
      <trkpt lat="47.88498" lon="6.97714">
        <ele>690</ele>
        <time>2016-10-28T05:55:15+02:00</time>
      </trkpt>
      <trkpt lat="47.88504" lon="6.97673">
        <ele>691</ele>
        <time>2016-10-28T05:55:20+02:00</time>
      </trkpt>
      <trkpt lat="47.88501" lon="6.97631">
        <ele>691</ele>
        <time>2016-10-28T05:55:25+02:00</time>
      </trkpt>
      <trkpt lat="47.88494" lon="6.97589">
        <ele>689</ele>
        <time>2016-10-28T05:55:30+02:00</time>
      </trkpt>
      <trkpt lat="47.88476" lon="6.97537">
        <ele>682</ele>
        <time>2016-10-28T05:55:35+02:00</time>
      </trkpt>
      <trkpt lat="47.8846" lon="6.97481">
        <ele>677</ele>
        <time>2016-10-28T05:55:40+02:00</time>
      </trkpt>
      <trkpt lat="47.88445" lon="6.97415">
        <ele>676</ele>
        <time>2016-10-28T05:55:45+02:00</time>
      </trkpt>
      <trkpt lat="47.88419" lon="6.97344">
        <ele>676</ele>
        <time>2016-10-28T05:55:50+02:00</time>
      </trkpt>
      <trkpt lat="47.88408" lon="6.97317">
        <ele>675</ele>
        <time>2016-10-28T05:55:55+02:00</time>
      </trkpt>
      <trkpt lat="47.8837" lon="6.97247">
        <ele>677</ele>
        <time>2016-10-28T05:56:00+02:00</time>
      </trkpt>
      <trkpt lat="47.8833" lon="6.97176">
        <ele>686</ele>
        <time>2016-10-28T05:56:05+02:00</time>
      </trkpt>
      <trkpt lat="47.88303" lon="6.97111">
        <ele>686</ele>
        <time>2016-10-28T05:56:10+02:00</time>
      </trkpt>
      <trkpt lat="47.88278" lon="6.97045">
        <ele>691</ele>
        <time>2016-10-28T05:56:15+02:00</time>
      </trkpt>
      <trkpt lat="47.88253" lon="6.96981">
        <ele>698</ele>
        <time>2016-10-28T05:56:20+02:00</time>
      </trkpt>
      <trkpt lat="47.88232" lon="6.9694">
        <ele>697</ele>
        <time>2016-10-28T05:56:25+02:00</time>
      </trkpt>
      <trkpt lat="47.88215" lon="6.9691">
        <ele>696</ele>
        <time>2016-10-28T05:56:30+02:00</time>
      </trkpt>
      <trkpt lat="47.88197" lon="6.96871">
        <ele>692</ele>
        <time>2016-10-28T05:56:35+02:00</time>
      </trkpt>
      <trkpt lat="47.88178" lon="6.96826">
        <ele>691</ele>
        <time>2016-10-28T05:56:40+02:00</time>
      </trkpt>
      <trkpt lat="47.88148" lon="6.96794">
        <ele>683</ele>
        <time>2016-10-28T05:56:45+02:00</time>
      </trkpt>
      <trkpt lat="47.88117" lon="6.96761">
        <ele>678</ele>
        <time>2016-10-28T05:56:50+02:00</time>
      </trkpt>
      <trkpt lat="47.88091" lon="6.96712">
        <ele>677</ele>
        <time>2016-10-28T05:56:55+02:00</time>
      </trkpt>
      <trkpt lat="47.88075" lon="6.96654">
        <ele>675</ele>
        <time>2016-10-28T05:57:00+02:00</time>
      </trkpt>
      <trkpt lat="47.88065" lon="6.9663">
        <ele>670</ele>
        <time>2016-10-28T05:57:05+02:00</time>
      </trkpt>
      <trkpt lat="47.88047" lon="6.96628">
        <ele>669</ele>
        <time>2016-10-28T05:57:10+02:00</time>
      </trkpt>
      <trkpt lat="47.88014" lon="6.96669">
        <ele>670</ele>
        <time>2016-10-28T05:57:15+02:00</time>
      </trkpt>
      <trkpt lat="47.87983" lon="6.96701">
        <ele>662</ele>
        <time>2016-10-28T05:57:20+02:00</time>
      </trkpt>
      <trkpt lat="47.87945" lon="6.96764">
        <ele>657</ele>
        <time>2016-10-28T05:57:25+02:00</time>
      </trkpt>
      <trkpt lat="47.87919" lon="6.968">
        <ele>655</ele>
        <time>2016-10-28T05:57:30+02:00</time>
      </trkpt>
      <trkpt lat="47.87854" lon="6.96815">
        <ele>659</ele>
        <time>2016-10-28T05:57:35+02:00</time>
      </trkpt>
      <trkpt lat="47.87805" lon="6.96823">
        <ele>664</ele>
        <time>2016-10-28T05:57:40+02:00</time>
      </trkpt>
      <trkpt lat="47.87774" lon="6.96778">
        <ele>659</ele>
        <time>2016-10-28T05:57:45+02:00</time>
      </trkpt>
      <trkpt lat="47.8774" lon="6.96742">
        <ele>654</ele>
        <time>2016-10-28T05:57:50+02:00</time>
      </trkpt>
      <trkpt lat="47.87712" lon="6.96706">
        <ele>644</ele>
        <time>2016-10-28T05:57:55+02:00</time>
      </trkpt>
      <trkpt lat="47.87688" lon="6.96703">
        <ele>642</ele>
        <time>2016-10-28T05:58:00+02:00</time>
      </trkpt>
      <trkpt lat="47.87666" lon="6.96694">
        <ele>638</ele>
        <time>2016-10-28T05:58:05+02:00</time>
      </trkpt>
      <trkpt lat="47.87662" lon="6.9667">
        <ele>631</ele>
        <time>2016-10-28T05:58:10+02:00</time>
      </trkpt>
      <trkpt lat="47.87666" lon="6.96634">
        <ele>625</ele>
        <time>2016-10-28T05:58:15+02:00</time>
      </trkpt>
      <trkpt lat="47.87682" lon="6.96612">
        <ele>622</ele>
        <time>2016-10-28T05:58:20+02:00</time>
      </trkpt>
      <trkpt lat="47.87703" lon="6.96565">
        <ele>613</ele>
        <time>2016-10-28T05:58:25+02:00</time>
      </trkpt>
      <trkpt lat="47.87692" lon="6.96533">
        <ele>601</ele>
        <time>2016-10-28T05:58:30+02:00</time>
      </trkpt>
      <trkpt lat="47.87713" lon="6.96499">
        <ele>595</ele>
        <time>2016-10-28T05:58:35+02:00</time>
      </trkpt>
      <trkpt lat="47.87716" lon="6.96464">
        <ele>587</ele>
        <time>2016-10-28T05:58:40+02:00</time>
      </trkpt>
      <trkpt lat="47.87702" lon="6.96441">
        <ele>577</ele>
        <time>2016-10-28T05:58:45+02:00</time>
      </trkpt>
      <trkpt lat="47.87725" lon="6.96424">
        <ele>579</ele>
        <time>2016-10-28T05:58:50+02:00</time>
      </trkpt>
      <trkpt lat="47.87719" lon="6.96385">
        <ele>568</ele>
        <time>2016-10-28T05:58:55+02:00</time>
      </trkpt>
      <trkpt lat="47.87712" lon="6.96348">
        <ele>557</ele>
        <time>2016-10-28T05:59:00+02:00</time>
      </trkpt>
      <trkpt lat="47.87729" lon="6.96338">
        <ele>561</ele>
        <time>2016-10-28T05:59:05+02:00</time>
      </trkpt>
      <trkpt lat="47.87729" lon="6.96303">
        <ele>551</ele>
        <time>2016-10-28T05:59:10+02:00</time>
      </trkpt>
      <trkpt lat="47.87749" lon="6.96297">
        <ele>557</ele>
        <time>2016-10-28T05:59:15+02:00</time>
      </trkpt>
      <trkpt lat="47.87742" lon="6.96275">
        <ele>548</ele>
        <time>2016-10-28T05:59:20+02:00</time>
      </trkpt>
      <trkpt lat="47.87758" lon="6.96265">
        <ele>548</ele>
        <time>2016-10-28T05:59:25+02:00</time>
      </trkpt>
      <trkpt lat="47.87754" lon="6.96237">
        <ele>540</ele>
        <time>2016-10-28T05:59:30+02:00</time>
      </trkpt>
      <trkpt lat="47.87778" lon="6.96239">
        <ele>543</ele>
        <time>2016-10-28T05:59:35+02:00</time>
      </trkpt>
      <trkpt lat="47.87788" lon="6.96196">
        <ele>533</ele>
        <time>2016-10-28T05:59:40+02:00</time>
      </trkpt>
      <trkpt lat="47.87821" lon="6.96196">
        <ele>536</ele>
        <time>2016-10-28T05:59:45+02:00</time>
      </trkpt>
      <trkpt lat="47.87859" lon="6.96177">
        <ele>539</ele>
        <time>2016-10-28T05:59:50+02:00</time>
      </trkpt>
      <trkpt lat="47.87876" lon="6.96136">
        <ele>534</ele>
        <time>2016-10-28T05:59:55+02:00</time>
      </trkpt>
      <trkpt lat="47.87893" lon="6.961">
        <ele>529</ele>
        <time>2016-10-28T06:00:00+02:00</time>
      </trkpt>
      <trkpt lat="47.879" lon="6.96058">
        <ele>520</ele>
        <time>2016-10-28T06:00:05+02:00</time>
      </trkpt>
      <trkpt lat="47.87911" lon="6.96039">
        <ele>516</ele>
        <time>2016-10-28T06:00:10+02:00</time>
      </trkpt>
      <trkpt lat="47.87927" lon="6.96013">
        <ele>513</ele>
        <time>2016-10-28T06:00:15+02:00</time>
      </trkpt>
      <trkpt lat="47.87884" lon="6.96019">
        <ele>505</ele>
        <time>2016-10-28T06:00:20+02:00</time>
      </trkpt>
      <trkpt lat="47.87855" lon="6.96025">
        <ele>502</ele>
        <time>2016-10-28T06:00:25+02:00</time>
      </trkpt>
      <trkpt lat="47.87842" lon="6.96027">
        <ele>500</ele>
        <time>2016-10-28T06:00:30+02:00</time>
      </trkpt>
      <trkpt lat="47.87834" lon="6.95995">
        <ele>492</ele>
        <time>2016-10-28T06:00:35+02:00</time>
      </trkpt>
      <trkpt lat="47.87865" lon="6.95966">
        <ele>493</ele>
        <time>2016-10-28T06:00:40+02:00</time>
      </trkpt>
      <trkpt lat="47.87889" lon="6.95934">
        <ele>492</ele>
        <time>2016-10-28T06:00:45+02:00</time>
      </trkpt>
      <trkpt lat="47.87899" lon="6.9591">
        <ele>490</ele>
        <time>2016-10-28T06:00:50+02:00</time>
      </trkpt>
      <trkpt lat="47.87925" lon="6.95867">
        <ele>490</ele>
        <time>2016-10-28T06:00:55+02:00</time>
      </trkpt>
      <trkpt lat="47.87932" lon="6.95841">
        <ele>489</ele>
        <time>2016-10-28T06:01:00+02:00</time>
      </trkpt>
      <trkpt lat="47.87906" lon="6.95829">
        <ele>485</ele>
        <time>2016-10-28T06:01:05+02:00</time>
      </trkpt>
      <trkpt lat="47.87879" lon="6.95809">
        <ele>485</ele>
        <time>2016-10-28T06:01:10+02:00</time>
      </trkpt>
      <trkpt lat="47.87849" lon="6.95799">
        <ele>486</ele>
        <time>2016-10-28T06:01:15+02:00</time>
      </trkpt>
      <trkpt lat="47.87824" lon="6.95792">
        <ele>486</ele>
        <time>2016-10-28T06:01:20+02:00</time>
      </trkpt>
      <trkpt lat="47.87788" lon="6.95777">
        <ele>487</ele>
        <time>2016-10-28T06:01:25+02:00</time>
      </trkpt>
      <trkpt lat="47.87767" lon="6.95764">
        <ele>488</ele>
        <time>2016-10-28T06:01:30+02:00</time>
      </trkpt>
      <trkpt lat="47.87751" lon="6.95751">
        <ele>488</ele>
        <time>2016-10-28T06:01:35+02:00</time>
      </trkpt>
      <trkpt lat="47.87734" lon="6.95743">
        <ele>489</ele>
        <time>2016-10-28T06:01:40+02:00</time>
      </trkpt>
      <trkpt lat="47.87715" lon="6.95736">
        <ele>491</ele>
        <time>2016-10-28T06:01:45+02:00</time>
      </trkpt>
      <trkpt lat="47.87696" lon="6.95728">
        <ele>493</ele>
        <time>2016-10-28T06:01:50+02:00</time>
      </trkpt>
      <trkpt lat="47.87683" lon="6.95728">
        <ele>494</ele>
        <time>2016-10-28T06:01:55+02:00</time>
      </trkpt>
      <trkpt lat="47.8767" lon="6.95738">
        <ele>495</ele>
        <time>2016-10-28T06:02:00+02:00</time>
      </trkpt>
      <trkpt lat="47.87665" lon="6.95766">
        <ele>495</ele>
        <time>2016-10-28T06:02:05+02:00</time>
      </trkpt>
      <trkpt lat="47.87667" lon="6.95801">
        <ele>494</ele>
        <time>2016-10-28T06:02:10+02:00</time>
      </trkpt>
      <trkpt lat="47.87666" lon="6.95833">
        <ele>493</ele>
        <time>2016-10-28T06:02:15+02:00</time>
      </trkpt>
      <trkpt lat="47.87654" lon="6.95869">
        <ele>496</ele>
        <time>2016-10-28T06:02:20+02:00</time>
      </trkpt>
      <trkpt lat="47.87647" lon="6.95904">
        <ele>497</ele>
        <time>2016-10-28T06:02:25+02:00</time>
      </trkpt>
      <trkpt lat="47.87634" lon="6.95947">
        <ele>498</ele>
        <time>2016-10-28T06:02:30+02:00</time>
      </trkpt>
      <trkpt lat="47.87626" lon="6.95977">
        <ele>497</ele>
        <time>2016-10-28T06:02:35+02:00</time>
      </trkpt>
      <trkpt lat="47.87619" lon="6.96007">
        <ele>495</ele>
        <time>2016-10-28T06:02:40+02:00</time>
      </trkpt>
      <trkpt lat="47.87597" lon="6.96054">
        <ele>492</ele>
        <time>2016-10-28T06:02:45+02:00</time>
      </trkpt>
      <trkpt lat="47.87582" lon="6.96052">
        <ele>493</ele>
        <time>2016-10-28T06:02:50+02:00</time>
      </trkpt>
      <trkpt lat="47.87568" lon="6.96052">
        <ele>495</ele>
        <time>2016-10-28T06:02:55+02:00</time>
      </trkpt>
      <trkpt lat="47.87561" lon="6.96052">
        <ele>496</ele>
        <time>2016-10-28T06:03:00+02:00</time>
      </trkpt>
      <trkpt lat="47.87548" lon="6.96052">
        <ele>498</ele>
        <time>2016-10-28T06:03:05+02:00</time>
      </trkpt>
      <trkpt lat="47.87538" lon="6.96054">
        <ele>499</ele>
        <time>2016-10-28T06:03:10+02:00</time>
      </trkpt>
      <trkpt lat="47.87522" lon="6.96056">
        <ele>500</ele>
        <time>2016-10-28T06:03:15+02:00</time>
      </trkpt>
      <trkpt lat="47.87509" lon="6.96063">
        <ele>500</ele>
        <time>2016-10-28T06:03:20+02:00</time>
      </trkpt>
      <trkpt lat="47.87496" lon="6.96069">
        <ele>500</ele>
        <time>2016-10-28T06:03:25+02:00</time>
      </trkpt>
      <trkpt lat="47.8748" lon="6.9608">
        <ele>502</ele>
        <time>2016-10-28T06:03:30+02:00</time>
      </trkpt>
      <trkpt lat="47.87469" lon="6.9609">
        <ele>503</ele>
        <time>2016-10-28T06:03:35+02:00</time>
      </trkpt>
      <trkpt lat="47.87452" lon="6.96114">
        <ele>504</ele>
        <time>2016-10-28T06:03:40+02:00</time>
      </trkpt>
      <trkpt lat="47.87439" lon="6.9614">
        <ele>501</ele>
        <time>2016-10-28T06:03:45+02:00</time>
      </trkpt>
      <trkpt lat="47.87424" lon="6.96153">
        <ele>501</ele>
        <time>2016-10-28T06:03:50+02:00</time>
      </trkpt>
      <trkpt lat="47.87407" lon="6.96176">
        <ele>501</ele>
        <time>2016-10-28T06:03:55+02:00</time>
      </trkpt>
      <trkpt lat="47.87395" lon="6.962">
        <ele>500</ele>
        <time>2016-10-28T06:04:00+02:00</time>
      </trkpt>
      <trkpt lat="47.87391" lon="6.96228">
        <ele>494</ele>
        <time>2016-10-28T06:04:05+02:00</time>
      </trkpt>
      <trkpt lat="47.87378" lon="6.9626">
        <ele>492</ele>
        <time>2016-10-28T06:04:10+02:00</time>
      </trkpt>
      <trkpt lat="47.87381" lon="6.96311">
        <ele>485</ele>
        <time>2016-10-28T06:04:15+02:00</time>
      </trkpt>
      <trkpt lat="47.87381" lon="6.96346">
        <ele>482</ele>
        <time>2016-10-28T06:04:20+02:00</time>
      </trkpt>
      <trkpt lat="47.87379" lon="6.96374">
        <ele>480</ele>
        <time>2016-10-28T06:04:25+02:00</time>
      </trkpt>
      <trkpt lat="47.87371" lon="6.96399">
        <ele>479</ele>
        <time>2016-10-28T06:04:30+02:00</time>
      </trkpt>
      <trkpt lat="47.8736" lon="6.96427">
        <ele>478</ele>
        <time>2016-10-28T06:04:35+02:00</time>
      </trkpt>
      <trkpt lat="47.87347" lon="6.9647">
        <ele>477</ele>
        <time>2016-10-28T06:04:40+02:00</time>
      </trkpt>
      <trkpt lat="47.87344" lon="6.96498">
        <ele>477</ele>
        <time>2016-10-28T06:04:45+02:00</time>
      </trkpt>
      <trkpt lat="47.87337" lon="6.96522">
        <ele>477</ele>
        <time>2016-10-28T06:04:50+02:00</time>
      </trkpt>
      <trkpt lat="47.87331" lon="6.96545">
        <ele>476</ele>
        <time>2016-10-28T06:04:55+02:00</time>
      </trkpt>
      <trkpt lat="47.87318" lon="6.9659">
        <ele>475</ele>
        <time>2016-10-28T06:05:00+02:00</time>
      </trkpt>
      <trkpt lat="47.87312" lon="6.96629">
        <ele>476</ele>
        <time>2016-10-28T06:05:05+02:00</time>
      </trkpt>
      <trkpt lat="47.87308" lon="6.96659">
        <ele>477</ele>
        <time>2016-10-28T06:05:10+02:00</time>
      </trkpt>
      <trkpt lat="47.87307" lon="6.96702">
        <ele>479</ele>
        <time>2016-10-28T06:05:15+02:00</time>
      </trkpt>
      <trkpt lat="47.87311" lon="6.96747">
        <ele>482</ele>
        <time>2016-10-28T06:05:20+02:00</time>
      </trkpt>
      <trkpt lat="47.8732" lon="6.96777">
        <ele>485</ele>
        <time>2016-10-28T06:05:25+02:00</time>
      </trkpt>
      <trkpt lat="47.87308" lon="6.96801">
        <ele>484</ele>
        <time>2016-10-28T06:05:30+02:00</time>
      </trkpt>
      <trkpt lat="47.87317" lon="6.9683">
        <ele>487</ele>
        <time>2016-10-28T06:05:35+02:00</time>
      </trkpt>
      <trkpt lat="47.87318" lon="6.96872">
        <ele>492</ele>
        <time>2016-10-28T06:05:40+02:00</time>
      </trkpt>
      <trkpt lat="47.87322" lon="6.96912">
        <ele>499</ele>
        <time>2016-10-28T06:05:45+02:00</time>
      </trkpt>
      <trkpt lat="47.87312" lon="6.96971">
        <ele>508</ele>
        <time>2016-10-28T06:05:50+02:00</time>
      </trkpt>
      <trkpt lat="47.87297" lon="6.97026">
        <ele>512</ele>
        <time>2016-10-28T06:05:55+02:00</time>
      </trkpt>
      <trkpt lat="47.87293" lon="6.97065">
        <ele>517</ele>
        <time>2016-10-28T06:06:00+02:00</time>
      </trkpt>
      <trkpt lat="47.87281" lon="6.97104">
        <ele>515</ele>
        <time>2016-10-28T06:06:05+02:00</time>
      </trkpt>
      <trkpt lat="47.87275" lon="6.97149">
        <ele>516</ele>
        <time>2016-10-28T06:06:10+02:00</time>
      </trkpt>
      <trkpt lat="47.87275" lon="6.97188">
        <ele>519</ele>
        <time>2016-10-28T06:06:15+02:00</time>
      </trkpt>
      <trkpt lat="47.8728" lon="6.97212">
        <ele>522</ele>
        <time>2016-10-28T06:06:20+02:00</time>
      </trkpt>
      <trkpt lat="47.87278" lon="6.97234">
        <ele>522</ele>
        <time>2016-10-28T06:06:25+02:00</time>
      </trkpt>
      <trkpt lat="47.87274" lon="6.97263">
        <ele>519</ele>
        <time>2016-10-28T06:06:30+02:00</time>
      </trkpt>
      <trkpt lat="47.8728" lon="6.97273">
        <ele>520</ele>
        <time>2016-10-28T06:06:35+02:00</time>
      </trkpt>
      <trkpt lat="47.87288" lon="6.973">
        <ele>518</ele>
        <time>2016-10-28T06:06:40+02:00</time>
      </trkpt>
      <trkpt lat="47.873" lon="6.97323">
        <ele>519</ele>
        <time>2016-10-28T06:06:45+02:00</time>
      </trkpt>
      <trkpt lat="47.87308" lon="6.97323">
        <ele>521</ele>
        <time>2016-10-28T06:06:50+02:00</time>
      </trkpt>
      <trkpt lat="47.87307" lon="6.97296">
        <ele>525</ele>
        <time>2016-10-28T06:06:55+02:00</time>
      </trkpt>
      <trkpt lat="47.87308" lon="6.97277">
        <ele>528</ele>
        <time>2016-10-28T06:07:00+02:00</time>
      </trkpt>
      <trkpt lat="47.87311" lon="6.97244">
        <ele>533</ele>
        <time>2016-10-28T06:07:05+02:00</time>
      </trkpt>
      <trkpt lat="47.87318" lon="6.97209">
        <ele>538</ele>
        <time>2016-10-28T06:07:10+02:00</time>
      </trkpt>
      <trkpt lat="47.87359" lon="6.9716">
        <ele>552</ele>
        <time>2016-10-28T06:07:15+02:00</time>
      </trkpt>
      <trkpt lat="47.87384" lon="6.97132">
        <ele>556</ele>
        <time>2016-10-28T06:07:20+02:00</time>
      </trkpt>
      <trkpt lat="47.87397" lon="6.97104">
        <ele>561</ele>
        <time>2016-10-28T06:07:25+02:00</time>
      </trkpt>
      <trkpt lat="47.87416" lon="6.97072">
        <ele>569</ele>
        <time>2016-10-28T06:07:30+02:00</time>
      </trkpt>
      <trkpt lat="47.87437" lon="6.97059">
        <ele>575</ele>
        <time>2016-10-28T06:07:35+02:00</time>
      </trkpt>
      <trkpt lat="47.87463" lon="6.97048">
        <ele>582</ele>
        <time>2016-10-28T06:07:40+02:00</time>
      </trkpt>
      <trkpt lat="47.87466" lon="6.97024">
        <ele>585</ele>
        <time>2016-10-28T06:07:45+02:00</time>
      </trkpt>
      <trkpt lat="47.87482" lon="6.97024">
        <ele>590</ele>
        <time>2016-10-28T06:07:50+02:00</time>
      </trkpt>
      <trkpt lat="47.87489" lon="6.96999">
        <ele>595</ele>
        <time>2016-10-28T06:07:55+02:00</time>
      </trkpt>
      <trkpt lat="47.87515" lon="6.9701">
        <ele>601</ele>
        <time>2016-10-28T06:08:00+02:00</time>
      </trkpt>
      <trkpt lat="47.87541" lon="6.96988">
        <ele>610</ele>
        <time>2016-10-28T06:08:05+02:00</time>
      </trkpt>
      <trkpt lat="47.87573" lon="6.96984">
        <ele>620</ele>
        <time>2016-10-28T06:08:10+02:00</time>
      </trkpt>
      <trkpt lat="47.876" lon="6.96991">
        <ele>628</ele>
        <time>2016-10-28T06:08:15+02:00</time>
      </trkpt>
      <trkpt lat="47.8762" lon="6.97033">
        <ele>628</ele>
        <time>2016-10-28T06:08:20+02:00</time>
      </trkpt>
      <trkpt lat="47.87641" lon="6.97055">
        <ele>630</ele>
        <time>2016-10-28T06:08:25+02:00</time>
      </trkpt>
      <trkpt lat="47.87663" lon="6.97064">
        <ele>636</ele>
        <time>2016-10-28T06:08:30+02:00</time>
      </trkpt>
      <trkpt lat="47.87696" lon="6.971">
        <ele>638</ele>
        <time>2016-10-28T06:08:35+02:00</time>
      </trkpt>
      <trkpt lat="47.87719" lon="6.97147">
        <ele>637</ele>
        <time>2016-10-28T06:08:40+02:00</time>
      </trkpt>
      <trkpt lat="47.87734" lon="6.97199">
        <ele>634</ele>
        <time>2016-10-28T06:08:45+02:00</time>
      </trkpt>
      <trkpt lat="47.87761" lon="6.97216">
        <ele>635</ele>
        <time>2016-10-28T06:08:50+02:00</time>
      </trkpt>
      <trkpt lat="47.87791" lon="6.97162">
        <ele>639</ele>
        <time>2016-10-28T06:08:55+02:00</time>
      </trkpt>
      <trkpt lat="47.87822" lon="6.97109">
        <ele>643</ele>
        <time>2016-10-28T06:09:00+02:00</time>
      </trkpt>
      <trkpt lat="47.87842" lon="6.97061">
        <ele>645</ele>
        <time>2016-10-28T06:09:05+02:00</time>
      </trkpt>
      <trkpt lat="47.87852" lon="6.97018">
        <ele>648</ele>
        <time>2016-10-28T06:09:10+02:00</time>
      </trkpt>
      <trkpt lat="47.87872" lon="6.96973">
        <ele>648</ele>
        <time>2016-10-28T06:09:15+02:00</time>
      </trkpt>
      <trkpt lat="47.87892" lon="6.96928">
        <ele>649</ele>
        <time>2016-10-28T06:09:20+02:00</time>
      </trkpt>
      <trkpt lat="47.87918" lon="6.96885">
        <ele>648</ele>
        <time>2016-10-28T06:09:25+02:00</time>
      </trkpt>
      <trkpt lat="47.87944" lon="6.96843">
        <ele>651</ele>
        <time>2016-10-28T06:09:30+02:00</time>
      </trkpt>
      <trkpt lat="47.87964" lon="6.96793">
        <ele>655</ele>
        <time>2016-10-28T06:09:35+02:00</time>
      </trkpt>
      <trkpt lat="47.87984" lon="6.96737">
        <ele>662</ele>
        <time>2016-10-28T06:09:40+02:00</time>
      </trkpt>
      <trkpt lat="47.88008" lon="6.968">
        <ele>656</ele>
        <time>2016-10-28T06:09:45+02:00</time>
      </trkpt>
      <trkpt lat="47.88039" lon="6.96848">
        <ele>654</ele>
        <time>2016-10-28T06:09:50+02:00</time>
      </trkpt>
      <trkpt lat="47.88061" lon="6.96891">
        <ele>649</ele>
        <time>2016-10-28T06:09:55+02:00</time>
      </trkpt>
      <trkpt lat="47.88076" lon="6.96941">
        <ele>641</ele>
        <time>2016-10-28T06:10:00+02:00</time>
      </trkpt>
      <trkpt lat="47.88114" lon="6.97014">
        <ele>636</ele>
        <time>2016-10-28T06:10:05+02:00</time>
      </trkpt>
      <trkpt lat="47.88141" lon="6.97104">
        <ele>624</ele>
        <time>2016-10-28T06:10:10+02:00</time>
      </trkpt>
      <trkpt lat="47.88167" lon="6.97186">
        <ele>616</ele>
        <time>2016-10-28T06:10:15+02:00</time>
      </trkpt>
      <trkpt lat="47.88197" lon="6.97265">
        <ele>615</ele>
        <time>2016-10-28T06:10:20+02:00</time>
      </trkpt>
      <trkpt lat="47.88217" lon="6.97327">
        <ele>612</ele>
        <time>2016-10-28T06:10:25+02:00</time>
      </trkpt>
      <trkpt lat="47.88253" lon="6.97377">
        <ele>616</ele>
        <time>2016-10-28T06:10:30+02:00</time>
      </trkpt>
      <trkpt lat="47.88269" lon="6.97422">
        <ele>614</ele>
        <time>2016-10-28T06:10:35+02:00</time>
      </trkpt>
      <trkpt lat="47.88279" lon="6.97476">
        <ele>611</ele>
        <time>2016-10-28T06:10:40+02:00</time>
      </trkpt>
      <trkpt lat="47.88279" lon="6.97527">
        <ele>608</ele>
        <time>2016-10-28T06:10:45+02:00</time>
      </trkpt>
      <trkpt lat="47.88263" lon="6.97574">
        <ele>603</ele>
        <time>2016-10-28T06:10:50+02:00</time>
      </trkpt>
      <trkpt lat="47.88221" lon="6.97607">
        <ele>594</ele>
        <time>2016-10-28T06:10:55+02:00</time>
      </trkpt>
      <trkpt lat="47.88191" lon="6.97663">
        <ele>593</ele>
        <time>2016-10-28T06:11:00+02:00</time>
      </trkpt>
      <trkpt lat="47.88193" lon="6.97739">
        <ele>601</ele>
        <time>2016-10-28T06:11:05+02:00</time>
      </trkpt>
      <trkpt lat="47.88191" lon="6.97845">
        <ele>602</ele>
        <time>2016-10-28T06:11:10+02:00</time>
      </trkpt>
      <trkpt lat="47.88189" lon="6.97948">
        <ele>597</ele>
        <time>2016-10-28T06:11:15+02:00</time>
      </trkpt>
      <trkpt lat="47.88198" lon="6.98015">
        <ele>593</ele>
        <time>2016-10-28T06:11:20+02:00</time>
      </trkpt>
      <trkpt lat="47.88214" lon="6.98061">
        <ele>590</ele>
        <time>2016-10-28T06:11:25+02:00</time>
      </trkpt>
      <trkpt lat="47.8826" lon="6.98102">
        <ele>593</ele>
        <time>2016-10-28T06:11:30+02:00</time>
      </trkpt>
      <trkpt lat="47.88312" lon="6.98134">
        <ele>590</ele>
        <time>2016-10-28T06:11:35+02:00</time>
      </trkpt>
      <trkpt lat="47.88364" lon="6.98175">
        <ele>584</ele>
        <time>2016-10-28T06:11:40+02:00</time>
      </trkpt>
      <trkpt lat="47.88413" lon="6.98214">
        <ele>576</ele>
        <time>2016-10-28T06:11:45+02:00</time>
      </trkpt>
      <trkpt lat="47.88458" lon="6.98214">
        <ele>572</ele>
        <time>2016-10-28T06:11:50+02:00</time>
      </trkpt>
      <trkpt lat="47.88502" lon="6.98214">
        <ele>567</ele>
        <time>2016-10-28T06:11:55+02:00</time>
      </trkpt>
      <trkpt lat="47.88538" lon="6.98199">
        <ele>564</ele>
        <time>2016-10-28T06:12:00+02:00</time>
      </trkpt>
      <trkpt lat="47.88583" lon="6.98177">
        <ele>559</ele>
        <time>2016-10-28T06:12:05+02:00</time>
      </trkpt>
      <trkpt lat="47.88626" lon="6.98164">
        <ele>556</ele>
        <time>2016-10-28T06:12:10+02:00</time>
      </trkpt>
      <trkpt lat="47.88656" lon="6.98194">
        <ele>544</ele>
        <time>2016-10-28T06:12:15+02:00</time>
      </trkpt>
      <trkpt lat="47.88676" lon="6.98239">
        <ele>535</ele>
        <time>2016-10-28T06:12:20+02:00</time>
      </trkpt>
      <trkpt lat="47.88691" lon="6.98302">
        <ele>527</ele>
        <time>2016-10-28T06:12:25+02:00</time>
      </trkpt>
      <trkpt lat="47.88694" lon="6.98357">
        <ele>522</ele>
        <time>2016-10-28T06:12:30+02:00</time>
      </trkpt>
      <trkpt lat="47.88675" lon="6.98413">
        <ele>517</ele>
        <time>2016-10-28T06:12:35+02:00</time>
      </trkpt>
      <trkpt lat="47.88658" lon="6.98499">
        <ele>512</ele>
        <time>2016-10-28T06:12:40+02:00</time>
      </trkpt>
      <trkpt lat="47.88676" lon="6.98566">
        <ele>511</ele>
        <time>2016-10-28T06:12:45+02:00</time>
      </trkpt>
      <trkpt lat="47.88702" lon="6.9863">
        <ele>505</ele>
        <time>2016-10-28T06:12:50+02:00</time>
      </trkpt>
      <trkpt lat="47.88735" lon="6.98666">
        <ele>505</ele>
        <time>2016-10-28T06:12:55+02:00</time>
      </trkpt>
      <trkpt lat="47.88768" lon="6.98705">
        <ele>498</ele>
        <time>2016-10-28T06:13:00+02:00</time>
      </trkpt>
      <trkpt lat="47.88789" lon="6.98763">
        <ele>484</ele>
        <time>2016-10-28T06:13:05+02:00</time>
      </trkpt>
      <trkpt lat="47.88797" lon="6.98821">
        <ele>474</ele>
        <time>2016-10-28T06:13:10+02:00</time>
      </trkpt>
      <trkpt lat="47.88771" lon="6.98812">
        <ele>474</ele>
        <time>2016-10-28T06:13:15+02:00</time>
      </trkpt>
      <trkpt lat="47.8874" lon="6.98776">
        <ele>478</ele>
        <time>2016-10-28T06:13:20+02:00</time>
      </trkpt>
      <trkpt lat="47.88698" lon="6.98746">
        <ele>476</ele>
        <time>2016-10-28T06:13:25+02:00</time>
      </trkpt>
      <trkpt lat="47.88712" lon="6.98804">
        <ele>466</ele>
        <time>2016-10-28T06:13:30+02:00</time>
      </trkpt>
      <trkpt lat="47.88727" lon="6.98864">
        <ele>457</ele>
        <time>2016-10-28T06:13:35+02:00</time>
      </trkpt>
      <trkpt lat="47.88747" lon="6.98911">
        <ele>450</ele>
        <time>2016-10-28T06:13:40+02:00</time>
      </trkpt>
      <trkpt lat="47.88757" lon="6.98947">
        <ele>447</ele>
        <time>2016-10-28T06:13:45+02:00</time>
      </trkpt>
      <trkpt lat="47.88754" lon="6.98978">
        <ele>443</ele>
        <time>2016-10-28T06:13:50+02:00</time>
      </trkpt>
      <trkpt lat="47.88763" lon="6.99001">
        <ele>441</ele>
        <time>2016-10-28T06:13:55+02:00</time>
      </trkpt>
      <trkpt lat="47.88774" lon="6.99004">
        <ele>441</ele>
        <time>2016-10-28T06:14:00+02:00</time>
      </trkpt>
      <trkpt lat="47.88795" lon="6.98997">
        <ele>442</ele>
        <time>2016-10-28T06:14:05+02:00</time>
      </trkpt>
    </trkseg>
  </trk>
</gpx>